sensor_id;sensor_type;location;lat;lon;timestamp;pressure;altitude;pressure_sealevel;temperature;humidity
11041;BME280;5573;49.592;8.662;2023-02-12T00:01:09;101944.00;;;5.63;100.00
11041;BME280;5573;49.592;8.662;2023-02-12T00:03:37;101937.44;;;5.64;100.00
11041;BME280;5573;49.592;8.662;2023-02-12T00:06:05;101925.69;;;5.64;100.00
11041;BME280;5573;49.592;8.662;2023-02-12T00:08:34;101918.41;;;5.40;100.00
11041;BME280;5573;49.592;8.662;2023-02-12T00:11:08;101941.19;;;5.49;100.00
11041;BME280;5573;49.592;8.662;2023-02-12T00:13:37;101924.25;;;5.53;100.00
11041;BME280;5573;49.592;8.662;2023-02-12T00:16:06;101928.59;;;5.54;100.00
11041;BME280;5573;49.592;8.662;2023-02-12T00:18:35;101937.06;;;5.52;100.00
11041;BME280;5573;49.592;8.662;2023-02-12T00:21:03;101936.91;;;5.62;100.00
11041;BME280;5573;49.592;8.662;2023-02-12T00:23:31;101942.69;;;5.61;100.00
11041;BME280;5573;49.592;8.662;2023-02-12T00:25:59;101931.78;;;5.61;100.00
11041;BME280;5573;49.592;8.662;2023-02-12T00:28:28;101933.16;;;5.58;100.00
11041;BME280;5573;49.592;8.662;2023-02-12T00:30:56;101944.72;;;5.50;100.00
11041;BME280;5573;49.592;8.662;2023-02-12T00:33:25;101941.34;;;5.58;100.00
11041;BME280;5573;49.592;8.662;2023-02-12T00:35:56;101929.38;;;5.54;100.00
11041;BME280;5573;49.592;8.662;2023-02-12T00:38:24;101935.59;;;5.60;100.00
11041;BME280;5573;49.592;8.662;2023-02-12T00:40:52;101940.31;;;5.54;100.00
11041;BME280;5573;49.592;8.662;2023-02-12T00:43:19;101942.00;;;5.50;100.00
11041;BME280;5573;49.592;8.662;2023-02-12T00:45:48;101937.16;;;5.47;100.00
11041;BME280;5573;49.592;8.662;2023-02-12T00:48:16;101942.53;;;5.52;100.00
11041;BME280;5573;49.592;8.662;2023-02-12T00:50:44;101944.91;;;5.59;100.00
11041;BME280;5573;49.592;8.662;2023-02-12T00:53:13;101940.97;;;5.65;100.00
11041;BME280;5573;49.592;8.662;2023-02-12T00:55:41;101941.19;;;5.68;100.00
11041;BME280;5573;49.592;8.662;2023-02-12T00:58:08;101946.38;;;5.70;100.00
11041;BME280;5573;49.592;8.662;2023-02-12T01:00:37;101947.41;;;5.74;100.00
11041;BME280;5573;49.592;8.662;2023-02-12T01:03:06;101950.41;;;5.73;100.00
11041;BME280;5573;49.592;8.662;2023-02-12T01:05:34;101950.72;;;5.71;100.00
11041;BME280;5573;49.592;8.662;2023-02-12T01:08:02;101960.44;;;5.77;100.00
11041;BME280;5573;49.592;8.662;2023-02-12T01:10:30;101956.34;;;5.80;100.00
11041;BME280;5573;49.592;8.662;2023-02-12T01:12:58;101950.56;;;5.81;100.00
11041;BME280;5573;49.592;8.662;2023-02-12T01:15:26;101944.06;;;5.77;100.00
11041;BME280;5573;49.592;8.662;2023-02-12T01:17:54;101949.84;;;5.76;100.00
11041;BME280;5573;49.592;8.662;2023-02-12T01:20:24;101923.56;;;5.61;100.00
11041;BME280;5573;49.592;8.662;2023-02-12T01:22:52;101952.91;;;5.69;100.00
11041;BME280;5573;49.592;8.662;2023-02-12T01:25:20;101948.19;;;5.75;100.00
11041;BME280;5573;49.592;8.662;2023-02-12T01:27:48;101941.94;;;5.74;100.00
11041;BME280;5573;49.592;8.662;2023-02-12T01:30:19;101941.41;;;5.72;100.00
11041;BME280;5573;49.592;8.662;2023-02-12T01:32:50;101946.78;;;5.77;100.00
11041;BME280;5573;49.592;8.662;2023-02-12T01:35:17;101945.47;;;5.75;100.00
11041;BME280;5573;49.592;8.662;2023-02-12T01:37:46;101942.59;;;5.66;100.00
11041;BME280;5573;49.592;8.662;2023-02-12T01:40:16;101935.38;;;5.56;100.00
11041;BME280;5573;49.592;8.662;2023-02-12T01:42:44;101943.69;;;5.65;100.00
11041;BME280;5573;49.592;8.662;2023-02-12T01:45:42;101942.09;;;5.64;100.00
11041;BME280;5573;49.592;8.662;2023-02-12T01:48:12;101947.47;;;5.69;100.00
11041;BME280;5573;49.592;8.662;2023-02-12T01:50:41;101927.31;;;5.65;100.00
11041;BME280;5573;49.592;8.662;2023-02-12T01:53:13;101935.44;;;5.70;100.00
11041;BME280;5573;49.592;8.662;2023-02-12T01:55:50;101933.28;;;5.67;100.00
11041;BME280;5573;49.592;8.662;2023-02-12T01:58:19;101929.75;;;5.66;100.00
11041;BME280;5573;49.592;8.662;2023-02-12T02:00:47;101934.94;;;5.68;100.00
11041;BME280;5573;49.592;8.662;2023-02-12T02:03:15;101937.44;;;5.64;100.00
11041;BME280;5573;49.592;8.662;2023-02-12T02:05:47;101932.94;;;5.55;100.00
11041;BME280;5573;49.592;8.662;2023-02-12T02:08:18;101938.09;;;5.56;100.00
11041;BME280;5573;49.592;8.662;2023-02-12T02:10:46;101941.06;;;5.60;100.00
11041;BME280;5573;49.592;8.662;2023-02-12T02:13:14;101940.44;;;5.63;100.00
11041;BME280;5573;49.592;8.662;2023-02-12T02:16:03;101938.91;;;5.76;100.00
11041;BME280;5573;49.592;8.662;2023-02-12T02:18:41;101924.94;;;5.77;100.00
11041;BME280;5573;49.592;8.662;2023-02-12T02:24:39;101926.06;;;5.76;100.00
11041;BME280;5573;49.592;8.662;2023-02-12T02:27:19;101935.16;;;5.72;100.00
11041;BME280;5573;49.592;8.662;2023-02-12T02:30:30;101938.59;;;5.77;100.00
11041;BME280;5573;49.592;8.662;2023-02-12T02:33:18;101940.53;;;5.77;100.00
11041;BME280;5573;49.592;8.662;2023-02-12T02:35:53;101937.94;;;5.66;100.00
11041;BME280;5573;49.592;8.662;2023-02-12T02:38:27;101929.38;;;5.54;100.00
11041;BME280;5573;49.592;8.662;2023-02-12T02:41:02;101937.22;;;5.61;100.00
11041;BME280;5573;49.592;8.662;2023-02-12T02:43:34;101934.19;;;5.62;100.00
11041;BME280;5573;49.592;8.662;2023-02-12T02:46:09;101931.25;;;5.59;100.00
11041;BME280;5573;49.592;8.662;2023-02-12T02:48:41;101929.47;;;5.68;100.00
11041;BME280;5573;49.592;8.662;2023-02-12T02:51:13;101936.47;;;5.74;100.00
11041;BME280;5573;49.592;8.662;2023-02-12T02:53:46;101928.78;;;5.76;100.00
11041;BME280;5573;49.592;8.662;2023-02-12T02:56:19;101930.41;;;5.77;100.00
11041;BME280;5573;49.592;8.662;2023-02-12T02:58:52;101937.50;;;5.78;100.00
11041;BME280;5573;49.592;8.662;2023-02-12T03:01:26;101929.63;;;5.58;100.00
11041;BME280;5573;49.592;8.662;2023-02-12T03:04:00;101940.25;;;5.59;100.00
11041;BME280;5573;49.592;8.662;2023-02-12T03:06:33;101921.28;;;5.68;100.00
11041;BME280;5573;49.592;8.662;2023-02-12T03:09:10;101925.56;;;5.74;100.00
11041;BME280;5573;49.592;8.662;2023-02-12T03:11:39;101931.31;;;5.73;100.00
11041;BME280;5573;49.592;8.662;2023-02-12T03:14:11;101929.09;;;5.75;100.00
11041;BME280;5573;49.592;8.662;2023-02-12T03:16:47;101931.53;;;5.76;100.00
11041;BME280;5573;49.592;8.662;2023-02-12T03:19:19;101930.13;;;5.79;100.00
11041;BME280;5573;49.592;8.662;2023-02-12T03:21:52;101928.56;;;5.73;100.00
11041;BME280;5573;49.592;8.662;2023-02-12T03:24:25;101924.06;;;5.63;100.00
11041;BME280;5573;49.592;8.662;2023-02-12T03:26:58;101921.50;;;5.72;100.00
11041;BME280;5573;49.592;8.662;2023-02-12T03:29:27;101928.78;;;5.76;100.00
11041;BME280;5573;49.592;8.662;2023-02-12T03:32:05;101924.13;;;5.77;100.00
11041;BME280;5573;49.592;8.662;2023-02-12T03:34:46;101928.00;;;5.76;100.00
11041;BME280;5573;49.592;8.662;2023-02-12T03:37:18;101936.19;;;5.76;100.00
11041;BME280;5573;49.592;8.662;2023-02-12T03:39:54;101932.84;;;5.79;100.00
11041;BME280;5573;49.592;8.662;2023-02-12T03:42:31;101938.31;;;5.79;100.00
11041;BME280;5573;49.592;8.662;2023-02-12T03:45:03;101880.63;;;5.47;100.00
11041;BME280;5573;49.592;8.662;2023-02-12T03:47:40;101928.69;;;5.81;100.00
11041;BME280;5573;49.592;8.662;2023-02-12T03:50:14;101930.34;;;5.82;100.00
11041;BME280;5573;49.592;8.662;2023-02-12T03:52:44;101935.28;;;5.80;100.00
11041;BME280;5573;49.592;8.662;2023-02-12T03:55:13;101936.91;;;5.81;100.00
11041;BME280;5573;49.592;8.662;2023-02-12T03:57:43;101939.56;;;5.86;100.00
11041;BME280;5573;49.592;8.662;2023-02-12T04:00:16;101938.72;;;5.86;100.00
11041;BME280;5573;49.592;8.662;2023-02-12T04:02:47;101928.63;;;5.86;100.00
11041;BME280;5573;49.592;8.662;2023-02-12T04:05:18;101931.44;;;5.81;100.00
11041;BME280;5573;49.592;8.662;2023-02-12T04:07:46;101930.78;;;5.70;100.00
11041;BME280;5573;49.592;8.662;2023-02-12T04:10:15;101937.66;;;5.68;100.00
11041;BME280;5573;49.592;8.662;2023-02-12T04:12:51;101931.91;;;5.69;100.00
11041;BME280;5573;49.592;8.662;2023-02-12T04:15:30;101927.81;;;5.67;100.00
11041;BME280;5573;49.592;8.662;2023-02-12T04:18:07;101937.56;;;5.73;100.00
11041;BME280;5573;49.592;8.662;2023-02-12T04:20:45;101926.50;;;5.64;100.00
11041;BME280;5573;49.592;8.662;2023-02-12T04:23:23;101946.00;;;5.77;100.00
11041;BME280;5573;49.592;8.662;2023-02-12T04:26:03;101944.16;;;5.72;100.00
11041;BME280;5573;49.592;8.662;2023-02-12T04:28:38;101949.84;;;5.76;100.00
11041;BME280;5573;49.592;8.662;2023-02-12T04:31:12;101951.75;;;5.75;100.00
11041;BME280;5573;49.592;8.662;2023-02-12T04:33:55;101949.00;;;5.75;100.00
11041;BME280;5573;49.592;8.662;2023-02-12T04:36:32;101942.00;;;5.69;100.00
11041;BME280;5573;49.592;8.662;2023-02-12T04:39:03;101953.66;;;5.75;100.00
11041;BME280;5573;49.592;8.662;2023-02-12T04:41:34;101950.03;;;5.79;100.00
11041;BME280;5573;49.592;8.662;2023-02-12T04:44:13;101952.78;;;5.79;100.00
11041;BME280;5573;49.592;8.662;2023-02-12T04:46:41;101946.00;;;5.77;100.00
11041;BME280;5573;49.592;8.662;2023-02-12T04:49:13;101960.75;;;5.76;100.00
11041;BME280;5573;49.592;8.662;2023-02-12T04:51:41;101921.44;;;5.58;100.00
11041;BME280;5573;49.592;8.662;2023-02-12T04:54:09;101963.53;;;5.89;100.00
11041;BME280;5573;49.592;8.662;2023-02-12T04:56:37;101952.84;;;5.93;100.00
11041;BME280;5573;49.592;8.662;2023-02-12T04:59:05;101934.78;;;5.78;100.00
11041;BME280;5573;49.592;8.662;2023-02-12T05:01:33;101947.03;;;6.00;100.00
11041;BME280;5573;49.592;8.662;2023-02-12T05:04:01;101948.34;;;6.02;100.00
11041;BME280;5573;49.592;8.662;2023-02-12T05:06:33;101948.72;;;5.96;100.00
11041;BME280;5573;49.592;8.662;2023-02-12T05:09:01;101947.81;;;5.81;100.00
11041;BME280;5573;49.592;8.662;2023-02-12T05:11:29;101946.38;;;5.70;100.00
11041;BME280;5573;49.592;8.662;2023-02-12T05:13:57;101946.38;;;5.70;100.00
11041;BME280;5573;49.592;8.662;2023-02-12T05:16:25;101947.16;;;5.70;100.00
11041;BME280;5573;49.592;8.662;2023-02-12T05:18:52;101943.41;;;5.66;100.00
11041;BME280;5573;49.592;8.662;2023-02-12T05:21:20;101938.84;;;5.62;100.00
11041;BME280;5573;49.592;8.662;2023-02-12T05:23:49;101941.06;;;5.60;100.00
11041;BME280;5573;49.592;8.662;2023-02-12T05:26:20;101936.53;;;5.50;100.00
11041;BME280;5573;49.592;8.662;2023-02-12T05:28:48;101940.00;;;5.37;100.00
11041;BME280;5573;49.592;8.662;2023-02-12T05:31:18;101942.88;;;5.26;100.00
11041;BME280;5573;49.592;8.662;2023-02-12T05:33:48;101938.69;;;5.34;100.00
11041;BME280;5573;49.592;8.662;2023-02-12T05:36:17;101939.25;;;5.31;100.00
11041;BME280;5573;49.592;8.662;2023-02-12T05:38:45;101944.50;;;5.27;100.00
11041;BME280;5573;49.592;8.662;2023-02-12T05:41:16;101948.56;;;5.30;100.00
11041;BME280;5573;49.592;8.662;2023-02-12T05:43:44;101945.03;;;5.29;100.00
11041;BME280;5573;49.592;8.662;2023-02-12T05:46:15;101929.06;;;5.18;100.00
11041;BME280;5573;49.592;8.662;2023-02-12T05:48:44;101925.31;;;5.14;100.00
11041;BME280;5573;49.592;8.662;2023-02-12T05:51:14;101938.22;;;5.27;100.00
11041;BME280;5573;49.592;8.662;2023-02-12T05:53:42;101946.59;;;5.36;100.00
11041;BME280;5573;49.592;8.662;2023-02-12T05:56:12;101946.88;;;5.34;100.00
11041;BME280;5573;49.592;8.662;2023-02-12T05:58:44;101953.94;;;5.35;100.00
11041;BME280;5573;49.592;8.662;2023-02-12T06:01:14;101950.19;;;5.31;100.00
11041;BME280;5573;49.592;8.662;2023-02-12T06:03:43;101949.22;;;5.22;100.00
11041;BME280;5573;49.592;8.662;2023-02-12T06:06:11;101950.66;;;5.14;100.00
11041;BME280;5573;49.592;8.662;2023-02-12T06:08:39;101949.69;;;5.05;100.00
11041;BME280;5573;49.592;8.662;2023-02-12T06:11:09;101950.94;;;4.94;100.00
11041;BME280;5573;49.592;8.662;2023-02-12T06:13:37;101960.22;;;4.93;100.00
11041;BME280;5573;49.592;8.662;2023-02-12T06:16:15;101946.75;;;4.77;100.00
11041;BME280;5573;49.592;8.662;2023-02-12T06:18:43;101950.28;;;4.78;100.00
11041;BME280;5573;49.592;8.662;2023-02-12T06:21:11;101947.66;;;4.67;100.00
11041;BME280;5573;49.592;8.662;2023-02-12T06:23:39;101959.00;;;4.80;100.00
11041;BME280;5573;49.592;8.662;2023-02-12T06:26:06;101957.06;;;4.80;100.00
11041;BME280;5573;49.592;8.662;2023-02-12T06:28:34;101963.06;;;4.82;100.00
11041;BME280;5573;49.592;8.662;2023-02-12T06:31:02;101940.38;;;4.63;100.00
11041;BME280;5573;49.592;8.662;2023-02-12T06:33:32;101957.06;;;4.80;100.00
11041;BME280;5573;49.592;8.662;2023-02-12T06:36:02;101958.59;;;4.92;100.00
11041;BME280;5573;49.592;8.662;2023-02-12T06:38:33;101967.59;;;4.92;100.00
11041;BME280;5573;49.592;8.662;2023-02-12T06:41:01;101960.22;;;4.93;100.00
11041;BME280;5573;49.592;8.662;2023-02-12T06:43:29;101962.53;;;5.04;100.00
11041;BME280;5573;49.592;8.662;2023-02-12T06:46:00;101962.47;;;5.09;100.00
11041;BME280;5573;49.592;8.662;2023-02-12T06:48:28;101962.09;;;5.16;100.00
11041;BME280;5573;49.592;8.662;2023-02-12T06:51:03;101971.13;;;5.17;100.00
11041;BME280;5573;49.592;8.662;2023-02-12T06:53:32;101972.38;;;5.24;100.00
11041;BME280;5573;49.592;8.662;2023-02-12T06:56:00;101964.13;;;5.29;100.00
11041;BME280;5573;49.592;8.662;2023-02-12T06:58:28;101967.47;;;5.45;100.00
11041;BME280;5573;49.592;8.662;2023-02-12T07:00:56;101980.00;;;5.46;100.00
11041;BME280;5573;49.592;8.662;2023-02-12T07:03:23;101984.22;;;5.58;100.00
11041;BME280;5573;49.592;8.662;2023-02-12T07:05:51;101986.88;;;5.63;100.00
11041;BME280;5573;49.592;8.662;2023-02-12T07:08:20;101997.59;;;5.78;100.00
11041;BME280;5573;49.592;8.662;2023-02-12T07:10:48;101993.31;;;5.72;100.00
11041;BME280;5573;49.592;8.662;2023-02-12T07:13:16;101999.34;;;5.88;100.00
11041;BME280;5573;49.592;8.662;2023-02-12T07:15:44;102000.97;;;5.89;100.00
11041;BME280;5573;49.592;8.662;2023-02-12T07:18:12;102006.84;;;6.01;100.00
11041;BME280;5573;49.592;8.662;2023-02-12T07:20:40;102001.06;;;6.03;100.00
11041;BME280;5573;49.592;8.662;2023-02-12T07:23:10;101977.56;;;5.83;100.00
11041;BME280;5573;49.592;8.662;2023-02-12T07:25:39;102009.09;;;6.13;100.00
11041;BME280;5573;49.592;8.662;2023-02-12T07:28:07;102006.53;;;6.03;100.00
11041;BME280;5573;49.592;8.662;2023-02-12T07:30:35;102010.44;;;6.16;100.00
11041;BME280;5573;49.592;8.662;2023-02-12T07:33:07;102010.44;;;6.16;100.00
11041;BME280;5573;49.592;8.662;2023-02-12T07:35:34;102017.59;;;6.30;100.00
11041;BME280;5573;49.592;8.662;2023-02-12T07:38:02;102012.63;;;6.33;100.00
11041;BME280;5573;49.592;8.662;2023-02-12T07:40:30;102013.06;;;6.40;100.00
11041;BME280;5573;49.592;8.662;2023-02-12T07:42:59;102016.06;;;6.38;100.00
11041;BME280;5573;49.592;8.662;2023-02-12T07:45:26;102012.53;;;6.38;100.00
11041;BME280;5573;49.592;8.662;2023-02-12T07:47:54;102021.50;;;6.24;100.00
11041;BME280;5573;49.592;8.662;2023-02-12T07:50:22;102025.28;;;6.09;100.00
11041;BME280;5573;49.592;8.662;2023-02-12T07:52:50;102019.28;;;6.26;100.00
11041;BME280;5573;49.592;8.662;2023-02-12T07:55:18;102015.72;;;6.26;100.00
11041;BME280;5573;49.592;8.662;2023-02-12T07:57:46;102010.81;;;6.42;100.00
11041;BME280;5573;49.592;8.662;2023-02-12T08:00:16;102016.13;;;6.52;100.00
11041;BME280;5573;49.592;8.662;2023-02-12T08:02:50;102018.13;;;6.46;100.00
11041;BME280;5573;49.592;8.662;2023-02-12T08:05:18;102023.19;;;6.53;100.00
11041;BME280;5573;49.592;8.662;2023-02-12T08:07:45;102017.34;;;6.60;100.00
11041;BME280;5573;49.592;8.662;2023-02-12T08:10:13;102023.47;;;6.70;100.00
11041;BME280;5573;49.592;8.662;2023-02-12T08:12:41;102026.50;;;6.83;100.00
11041;BME280;5573;49.592;8.662;2023-02-12T08:15:09;102019.31;;;6.87;100.00
11041;BME280;5573;49.592;8.662;2023-02-12T08:17:38;102032.63;;;6.94;100.00
11041;BME280;5573;49.592;8.662;2023-02-12T08:20:09;102030.78;;;7.03;100.00
11041;BME280;5573;49.592;8.662;2023-02-12T08:22:37;102021.69;;;6.94;100.00
11041;BME280;5573;49.592;8.662;2023-02-12T08:25:05;102027.66;;;7.09;100.00
11041;BME280;5573;49.592;8.662;2023-02-12T08:27:33;102028.66;;;7.13;100.00
11041;BME280;5573;49.592;8.662;2023-02-12T08:30:00;102038.69;;;7.18;100.00
11041;BME280;5573;49.592;8.662;2023-02-12T08:32:29;102036.78;;;7.05;100.00
11041;BME280;5573;49.592;8.662;2023-02-12T08:34:59;102046.50;;;7.11;100.00
11041;BME280;5573;49.592;8.662;2023-02-12T08:37:26;102042.47;;;7.08;100.00
11041;BME280;5573;49.592;8.662;2023-02-12T08:39:54;102040.53;;;7.09;100.00
11041;BME280;5573;49.592;8.662;2023-02-12T08:42:22;102037.78;;;7.09;100.00
11041;BME280;5573;49.592;8.662;2023-02-12T08:44:51;102042.13;;;7.10;100.00
11041;BME280;5573;49.592;8.662;2023-02-12T08:47:18;102033.13;;;7.09;100.00
11041;BME280;5573;49.592;8.662;2023-02-12T08:49:46;102044.97;;;7.19;100.00
11041;BME280;5573;49.592;8.662;2023-02-12T08:52:16;102051.38;;;7.28;100.00
11041;BME280;5573;49.592;8.662;2023-02-12T08:54:45;102054.63;;;7.30;100.00
11041;BME280;5573;49.592;8.662;2023-02-12T08:57:12;102056.97;;;7.37;100.00
11041;BME280;5573;49.592;8.662;2023-02-12T08:59:40;102042.75;;;7.35;100.00
11041;BME280;5573;49.592;8.662;2023-02-12T09:02:08;102054.81;;;7.47;100.00
11041;BME280;5573;49.592;8.662;2023-02-12T09:04:37;102057.66;;;7.56;100.00
11041;BME280;5573;49.592;8.662;2023-02-12T09:07:06;102049.44;;;7.56;100.00
11041;BME280;5573;49.592;8.662;2023-02-12T09:09:37;102052.75;;;7.67;100.00
11041;BME280;5573;49.592;8.662;2023-02-12T09:12:05;102051.44;;;7.78;100.00
11041;BME280;5573;49.592;8.662;2023-02-12T09:14:33;102057.28;;;7.85;100.00
11041;BME280;5573;49.592;8.662;2023-02-12T09:17:01;102059.81;;;7.96;100.00
11041;BME280;5573;49.592;8.662;2023-02-12T09:19:28;102062.00;;;8.07;100.00
11041;BME280;5573;49.592;8.662;2023-02-12T09:21:56;102057.59;;;8.20;100.00
11041;BME280;5573;49.592;8.662;2023-02-12T09:24:25;102054.28;;;8.32;100.00
11041;BME280;5573;49.592;8.662;2023-02-12T09:26:55;102051.66;;;8.41;100.00
11041;BME280;5573;49.592;8.662;2023-02-12T09:29:23;102057.53;;;8.48;100.00
11041;BME280;5573;49.592;8.662;2023-02-12T09:31:51;102047.97;;;8.45;100.00
11041;BME280;5573;49.592;8.662;2023-02-12T09:34:19;102048.09;;;8.63;100.00
11041;BME280;5573;49.592;8.662;2023-02-12T09:36:46;102049.63;;;8.78;100.00
11041;BME280;5573;49.592;8.662;2023-02-12T09:39:14;102056.88;;;8.73;100.00
11041;BME280;5573;49.592;8.662;2023-02-12T09:44:38;102057.56;;;8.79;100.00
11041;BME280;5573;49.592;8.662;2023-02-12T09:47:14;102063.69;;;8.85;100.00
11041;BME280;5573;49.592;8.662;2023-02-12T09:49:54;102059.88;;;8.94;100.00
11041;BME280;5573;49.592;8.662;2023-02-12T09:52:27;102062.19;;;9.01;100.00
11041;BME280;5573;49.592;8.662;2023-02-12T09:54:55;102069.59;;;9.01;100.00
11041;BME280;5573;49.592;8.662;2023-02-12T09:57:26;102067.66;;;9.01;100.00
11041;BME280;5573;49.592;8.662;2023-02-12T10:00:00;102071.06;;;8.98;100.00
11041;BME280;5573;49.592;8.662;2023-02-12T10:02:30;102065.22;;;9.00;100.00
11041;BME280;5573;49.592;8.662;2023-02-12T10:05:00;102075.88;;;8.92;100.00
11041;BME280;5573;49.592;8.662;2023-02-12T10:07:37;102066.63;;;8.88;100.00
11041;BME280;5573;49.592;8.662;2023-02-12T10:10:19;102069.94;;;8.77;100.00
11041;BME280;5573;49.592;8.662;2023-02-12T10:12:54;102069.06;;;8.90;100.00
11041;BME280;5573;49.592;8.662;2023-02-12T10:15:33;102055.00;;;8.91;100.00
11041;BME280;5573;49.592;8.662;2023-02-12T10:18:25;102060.53;;;9.00;100.00
11041;BME280;5573;49.592;8.662;2023-02-12T10:21:02;102013.78;;;8.74;100.00
11041;BME280;5573;49.592;8.662;2023-02-12T10:23:47;102056.25;;;9.16;100.00
11041;BME280;5573;49.592;8.662;2023-02-12T10:26:21;102053.09;;;9.32;100.00
11041;BME280;5573;49.592;8.662;2023-02-12T10:28:51;102052.28;;;9.31;100.00
11041;BME280;5573;49.592;8.662;2023-02-12T10:31:25;102048.72;;;9.31;100.00
11041;BME280;5573;49.592;8.662;2023-02-12T10:33:56;102057.16;;;9.34;100.00
11041;BME280;5573;49.592;8.662;2023-02-12T10:36:37;102051.88;;;9.55;100.00
11041;BME280;5573;49.592;8.662;2023-02-12T10:39:13;102037.34;;;9.64;100.00
11041;BME280;5573;49.592;8.662;2023-02-12T10:41:46;102042.19;;;9.84;100.00
11041;BME280;5573;49.592;8.662;2023-02-12T10:44:16;102036.06;;;9.87;100.00
11041;BME280;5573;49.592;8.662;2023-02-12T10:46:45;102041.56;;;9.96;100.00
11041;BME280;5573;49.592;8.662;2023-02-12T10:49:15;102036.38;;;9.94;100.00
11041;BME280;5573;49.592;8.662;2023-02-12T10:51:56;102043.66;;;9.90;100.00
11041;BME280;5573;49.592;8.662;2023-02-12T10:54:33;102041.56;;;9.87;100.00
11041;BME280;5573;49.592;8.662;2023-02-12T10:57:11;102038.66;;;10.01;100.00
11041;BME280;5573;49.592;8.662;2023-02-12T10:59:41;102041.75;;;10.00;100.00
11041;BME280;5573;49.592;8.662;2023-02-12T11:02:22;102036.06;;;10.05;100.00
11041;BME280;5573;49.592;8.662;2023-02-12T11:04:51;102035.44;;;10.08;100.00
11041;BME280;5573;49.592;8.662;2023-02-12T11:07:21;102030.56;;;10.05;100.00
11041;BME280;5573;49.592;8.662;2023-02-12T11:09:50;102029.28;;;10.11;100.00
11041;BME280;5573;49.592;8.662;2023-02-12T11:12:23;102020.22;;;10.19;100.00
11041;BME280;5573;49.592;8.662;2023-02-12T11:14:54;102022.00;;;10.15;100.00
11041;BME280;5573;49.592;8.662;2023-02-12T11:17:27;102013.09;;;10.27;100.00
11041;BME280;5573;49.592;8.662;2023-02-12T11:20:03;102013.75;;;10.32;100.00
11041;BME280;5573;49.592;8.662;2023-02-12T11:22:31;102019.88;;;10.47;100.00
11041;BME280;5573;49.592;8.662;2023-02-12T11:25:01;101996.44;;;10.32;100.00
11041;BME280;5573;49.592;8.662;2023-02-12T11:27:34;102011.34;;;10.31;100.00
11041;BME280;5573;49.592;8.662;2023-02-12T11:30:17;101977.19;;;10.23;100.00
11041;BME280;5573;49.592;8.662;2023-02-12T11:32:46;102001.47;;;10.30;100.00
11041;BME280;5573;49.592;8.662;2023-02-12T11:35:16;101998.19;;;10.28;100.00
11041;BME280;5573;49.592;8.662;2023-02-12T11:37:51;101999.97;;;10.24;100.00
11041;BME280;5573;49.592;8.662;2023-02-12T11:40:22;101995.28;;;10.24;100.00
11041;BME280;5573;49.592;8.662;2023-02-12T11:42:51;101999.19;;;10.23;100.00
11041;BME280;5573;49.592;8.662;2023-02-12T11:45:25;101989.47;;;10.26;100.00
11041;BME280;5573;49.592;8.662;2023-02-12T11:47:55;101992.88;;;10.40;100.00
11041;BME280;5573;49.592;8.662;2023-02-12T11:50:28;101991.41;;;10.43;100.00
11041;BME280;5573;49.592;8.662;2023-02-12T11:52:58;101992.19;;;10.52;100.00
11041;BME280;5573;49.592;8.662;2023-02-12T11:55:28;101988.50;;;10.48;100.00
11041;BME280;5573;49.592;8.662;2023-02-12T11:58:11;101991.72;;;10.41;100.00
11041;BME280;5573;49.592;8.662;2023-02-12T12:00:45;101983.63;;;10.45;100.00
11041;BME280;5573;49.592;8.662;2023-02-12T12:03:20;101985.41;;;10.49;100.00
11041;BME280;5573;49.592;8.662;2023-02-12T12:05:52;101984.72;;;10.61;100.00
11041;BME280;5573;49.592;8.662;2023-02-12T12:08:24;101977.63;;;10.51;100.00
11041;BME280;5573;49.592;8.662;2023-02-12T12:10:56;101973.84;;;10.73;100.00
11041;BME280;5573;49.592;8.662;2023-02-12T12:13:30;101971.53;;;11.14;100.00
11041;BME280;5573;49.592;8.662;2023-02-12T12:16:06;101971.56;;;11.35;99.93
11041;BME280;5573;49.592;8.662;2023-02-12T12:18:57;101962.53;;;11.26;98.25
11041;BME280;5573;49.592;8.662;2023-02-12T12:21:49;101962.59;;;11.17;100.00
11041;BME280;5573;49.592;8.662;2023-02-12T12:24:24;101967.28;;;11.46;99.83
11041;BME280;5573;49.592;8.662;2023-02-12T12:26:59;101965.69;;;11.45;98.44
11041;BME280;5573;49.592;8.662;2023-02-12T12:29:41;101961.66;;;11.43;96.01
11041;BME280;5573;49.592;8.662;2023-02-12T12:32:14;101955.13;;;11.47;100.00
11041;BME280;5573;49.592;8.662;2023-02-12T12:34:46;101962.53;;;11.55;99.25
11041;BME280;5573;49.592;8.662;2023-02-12T12:37:21;101935.81;;;11.26;96.08
11041;BME280;5573;49.592;8.662;2023-02-12T12:40:10;101959.50;;;11.18;98.79
11041;BME280;5573;49.592;8.662;2023-02-12T12:42:56;101948.13;;;10.99;100.00
11041;BME280;5573;49.592;8.662;2023-02-12T12:45:46;101946.66;;;11.02;100.00
11041;BME280;5573;49.592;8.662;2023-02-12T12:48:27;101946.13;;;11.08;100.00
11041;BME280;5573;49.592;8.662;2023-02-12T12:51:11;101940.72;;;11.21;100.00
11041;BME280;5573;49.592;8.662;2023-02-12T12:53:54;101935.56;;;11.61;100.00
11041;BME280;5573;49.592;8.662;2023-02-12T12:56:38;101933.19;;;11.51;88.98
11041;BME280;5573;49.592;8.662;2023-02-12T12:59:33;101922.16;;;11.30;96.08
11041;BME280;5573;49.592;8.662;2023-02-12T13:02:34;101927.09;;;11.66;99.19
11041;BME280;5573;49.592;8.662;2023-02-12T13:05:29;101919.00;;;11.61;93.98
11041;BME280;5573;49.592;8.662;2023-02-12T13:08:06;101896.31;;;11.43;98.89
11041;BME280;5573;49.592;8.662;2023-02-12T13:10:42;101910.66;;;11.70;96.72
11041;BME280;5573;49.592;8.662;2023-02-12T13:13:19;101918.53;;;11.80;95.01
11041;BME280;5573;49.592;8.662;2023-02-12T13:15:54;101909.34;;;12.09;94.36
11041;BME280;5573;49.592;8.662;2023-02-12T13:18:35;101911.66;;;11.86;94.32
11041;BME280;5573;49.592;8.662;2023-02-12T13:21:12;101908.66;;;11.79;96.48
11041;BME280;5573;49.592;8.662;2023-02-12T13:23:49;101908.19;;;11.77;96.07
11041;BME280;5573;49.592;8.662;2023-02-12T13:26:24;101906.78;;;11.92;94.00
11041;BME280;5573;49.592;8.662;2023-02-12T13:29:00;101902.81;;;11.80;93.66
11041;BME280;5573;49.592;8.662;2023-02-12T13:31:35;101896.22;;;11.73;95.57